Terminal Aerodrome Forecast
Issued by NWS New Orleans/Baton Rouge, LA

Home | Current Version | Previous Version | Text Only | Print | Product List | Glossary On
Versions: 1 2 3 4 5 6 7 8 9 10 11 12 13 14 15 16 17 18
000
FTUS44 KLIX 060522
TAFBTR
TAF
KBTR 060522Z 0606/0706 24009KT 4SM BR BKN003
     FM061400 27007KT P6SM BKN003
     FM061700 29006KT P6SM OVC008
     FM062100 30005KT P6SM BKN010
     FM070100 VRB03KT P6SM BKN020=

USA.gov is the U.S. government's official web portal to all federal, state and local government web resources and services.